Terminal Aerodrome Forecast
Issued by NWS

Home | Current Version | Previous Version | Text Only | Print | Product List | Glossary On
Versions: 1 2 3 4 5 6 7 8 9 10 11 12 13
000
FTAK31 PAJN 221100
TAFAJN
TAF
PAJN 221140Z 2212/2312 00000KT P6SM SCT140
     FM221800 24008KT P6SM FEW250
     FM230400 VRB04KT P6SM SCT100 BKN200
     FM230600 08005KT P6SM BKN100=

USA.gov is the U.S. government's official web portal to all federal, state and local government web resources and services.